tititudorancea.com
Station Historical Data
Daily Summary for March 18, 2018 Units:  Metric    English   Both
« Previous Day
Next Day »
Daily Weekly Monthly Yearly Custom
  High: Low: Average:
Temperature: -17.8 °C 13.2 °C 18.6 °C
Dew Point: -17.8 °C 1.1 °C 6.2 °C
Humidity: Humidity % 30 % 46 %
Wind Speed: 0 km/h 0.8 km/h 16.4 km/h
Wind Gust: 0 km/h - -
Wind:- - WNW
Pressure: 0 hPa 999.5 hPa -
Precipitation: 0.51 mm    
Historical Graphs
 
 
Ararat weather Find more about Weather in Ararat, AU


 



 


Tabular Data for March 18, 2018
Time Temperature Dew Point Pressure Wind Wind Speed Wind Gust Humidity Rainfall Rate (Hourly)
-17.8 °C -17.8 °C 0 hPa Calm     Humidity % 0 mm
00:03 24.4 °C 8.3 °C 1002.6 hPa West 8.7 km/h 11.1 km/h 36 % 0 mm
00:08 24.4 °C 8.4 °C 1002.6 hPa North 8.5 km/h 12.9 km/h 36 % 0 mm
00:13 24.5 °C 8.4 °C 1002.6 hPa West 10.1 km/h 14.8 km/h 36 % 0 mm
00:18 24.7 °C 8.2 °C 1002.6 hPa North 9 km/h 13 km/h 35 % 0 mm
00:23 24.9 °C 7.9 °C 1002.6 hPa WNW 9.8 km/h 14.8 km/h 34 % 0 mm
00:28 25.1 °C 7.7 °C 1002.6 hPa North 9.2 km/h 16.7 km/h 33 % 0 mm
00:33 25.2 °C 7.8 °C 1002.6 hPa WNW 8.5 km/h 14.8 km/h 33 % 0 mm
00:38 25.3 °C 7.4 °C 1002.6 hPa WNW 6.3 km/h 7.4 km/h 32 % 0 mm
00:43 25.4 °C 7.5 °C 1001.9 hPa North 4.2 km/h 5.6 km/h 32 % 0 mm
00:48 25.4 °C 7.5 °C 1002.6 hPa WNW 6.4 km/h 7.4 km/h 32 % 0 mm
00:53 25.3 °C 7.4 °C 1002.6 hPa WNW 3.4 km/h 5.6 km/h 32 % 0 mm
00:58 25.3 °C 7.4 °C 1001.9 hPa WNW 0.8 km/h 1.9 km/h 32 % 0 mm
01:03 25.2 °C 7.7 °C 1002.3 hPa NW 7.1 km/h 11.1 km/h 33 % 0 mm
01:08 24.9 °C 7.6 °C 1002.3 hPa NW 4 km/h 6.4 km/h 33 % 0 mm
01:13 24.7 °C 7.8 °C 1001.6 hPa NW 1.4 km/h 3.7 km/h 34 % 0 mm
01:18 24.7 °C 7.8 °C 1001.9 hPa North 5.1 km/h 8 km/h 34 % 0 mm
01:23 25 °C 7.6 °C 1001.9 hPa WNW 6.3 km/h 14.8 km/h 33 % 0 mm
01:28 25.4 °C 7.6 °C 1001.9 hPa North 15.1 km/h 18.5 km/h 32 % 0 mm
01:33 25.8 °C 7.9 °C 1001.6 hPa West 19.6 km/h 32.2 km/h 32 % 0 mm
01:38 25.8 °C 7.8 °C 1001.2 hPa NNW 11.4 km/h 24.1 km/h 32 % 0 mm
01:43 25.7 °C 8.2 °C 1001.2 hPa NW 13 km/h 18.5 km/h 33 % 0 mm
01:48 25.7 °C 7.7 °C 1001.2 hPa North 8.4 km/h 11.1 km/h 32 % 0 mm
01:53 25.2 °C 7.8 °C 1001.2 hPa NNE 7.4 km/h 9.7 km/h 33 % 0 mm
01:58 24.9 °C 7.5 °C 1001.6 hPa NNE 10.3 km/h 14.8 km/h 33 % 0 mm
02:03 24.7 °C 7.8 °C 1001.2 hPa North 4.7 km/h 7.4 km/h 34 % 0 mm
02:08 24.7 °C 7.7 °C 1001.2 hPa North 7.6 km/h 9.3 km/h 34 % 0 mm
02:13 24.6 °C 7.7 °C 1001.2 hPa North 10.9 km/h 14.8 km/h 34 % 0 mm
02:18 24.4 °C 7.6 °C 1000.9 hPa North 4.5 km/h 5.6 km/h 34 % 0 mm
02:23 24.3 °C 7.4 °C 1000.9 hPa North 5.1 km/h 11.1 km/h 34 % 0 mm
02:28 24.2 °C 7.8 °C 1000.6 hPa North 2.3 km/h 6.4 km/h 35 % 0 mm
02:33 24.1 °C 7.7 °C 1000.9 hPa North 5.1 km/h 7.4 km/h 35 % 0 mm
02:38 24.1 °C 7.6 °C 1000.9 hPa North 5.6 km/h 11.1 km/h 35 % 0 mm
02:41 24.1 °C 8.1 °C 1001.2 hPa North 6 km/h 9.7 km/h 36 % 0 mm
02:46 24.1 °C 8.1 °C 1001.2 hPa NNW 8 km/h 13 km/h 36 % 0 mm
02:51 24.2 °C 8.2 °C 1000.9 hPa North 9.7 km/h 19.3 km/h 36 % 0 mm
02:56 24.2 °C 8.2 °C 1000.9 hPa NNW 9.5 km/h 14.8 km/h 36 % 0 mm
03:01 24.3 °C 8.7 °C 1000.9 hPa NNW 15.1 km/h 20.4 km/h 37 % 0 mm
03:06 24.3 °C 8.7 °C 1000.9 hPa NNW 12.1 km/h 20.4 km/h 37 % 0 mm
03:11 24.3 °C 8.7 °C 1000.6 hPa North 11.6 km/h 16.7 km/h 37 % 0 mm
03:16 24.2 °C 9 °C 1000.6 hPa North 19.6 km/h 27.8 km/h 38 % 0 mm
03:21 24.3 °C 9.1 °C 1000.2 hPa North 8.7 km/h 17.7 km/h 38 % 0 mm
03:26 24.2 °C 9.4 °C 1000.2 hPa NNW 10.1 km/h 16.7 km/h 39 % 0 mm
03:31 24.2 °C 9.8 °C 1000.2 hPa NNW 12.4 km/h 18.5 km/h 40 % 0 mm
03:36 24.1 °C 10.1 °C 999.9 hPa NNW 14.3 km/h 18.5 km/h 41 % 0 mm
03:41 24.2 °C 10.4 °C 1000.6 hPa NW 13.8 km/h 18.5 km/h 42 % 0 mm
03:46 24.2 °C 10.8 °C 1000.6 hPa NW 21.4 km/h 31.5 km/h 43 % 0 mm
03:51 24.3 °C 10.9 °C 1000.2 hPa North 11.6 km/h 18.5 km/h 43 % 0 mm
03:56 24.3 °C 11.2 °C 1000.2 hPa NW 16.9 km/h 24.1 km/h 44 % 0 mm
04:01 24.2 °C 11.6 °C 1000.2 hPa NW 18.3 km/h 31.5 km/h 45 % 0 mm
04:06 24.3 °C 11.6 °C 999.9 hPa North 19.5 km/h 33.3 km/h 45 % 0 mm
04:11 24.4 °C 11.7 °C 1000.2 hPa NW 24.1 km/h 35.2 km/h 45 % 0 mm
04:16 24.4 °C 11.7 °C 999.9 hPa NNW 17.5 km/h 27.8 km/h 45 % 0 mm
04:21 24.3 °C 11.6 °C 999.9 hPa NW 23.3 km/h 35.2 km/h 45 % 0 mm
04:26 24.3 °C 11.6 °C 1000.2 hPa WNW 16.9 km/h 24.1 km/h 45 % 0 mm
04:31 24.2 °C 11.8 °C 1000.2 hPa WNW 15.3 km/h 20.4 km/h 46 % 0 mm
04:36 24.1 °C 11.7 °C 1000.2 hPa WNW 10.1 km/h 14.8 km/h 46 % 0 mm
04:41 23.9 °C 11.6 °C 999.9 hPa NW 6.1 km/h 9.3 km/h 46 % 0 mm
04:46 23.7 °C 11.3 °C 999.9 hPa NW 9.8 km/h 13 km/h 46 % 0 mm
04:51 23.4 °C 10.8 °C 999.9 hPa WNW 14 km/h 22.2 km/h 45 % 0 mm
04:56 23.2 °C 10.6 °C 1000.2 hPa NNW 21.6 km/h 29.6 km/h 45 % 0 mm
05:01 23 °C 10.4 °C 1000.2 hPa NW 24.3 km/h 31.5 km/h 45 % 0 mm
05:06 22.7 °C 10.2 °C 999.9 hPa North 14 km/h 20.4 km/h 45 % 0 mm
05:11 22.6 °C 10 °C 1000.2 hPa NNW 20.9 km/h 30.6 km/h 45 % 0 mm
05:16 22.4 °C 9.9 °C 999.9 hPa North 24.9 km/h 35.2 km/h 45 % 0 mm
05:21 22.1 °C 9.6 °C 999.5 hPa NW 26.7 km/h 38.9 km/h 45 % 0 mm
05:26 21.9 °C 9.7 °C 999.5 hPa WNW 21.9 km/h 35.2 km/h 46 % 0 mm
05:31 21.6 °C 9.8 °C 999.9 hPa North 18.2 km/h 29.6 km/h 47 % 0 mm
05:36 20.9 °C 10.7 °C 999.9 hPa WNW 19.3 km/h 27.8 km/h 52 % 0 mm
05:41 19.7 °C 11.5 °C 999.5 hPa WNW 13.8 km/h 31.5 km/h 59 % 0.51 mm
05:46 19.3 °C 11.6 °C 999.5 hPa NW 11.9 km/h 20.4 km/h 61 % 0.51 mm
05:51 19.3 °C 10.8 °C 999.9 hPa WNW 29.6 km/h 42.6 km/h 58 % 0.51 mm
05:56 19.6 °C 11.1 °C 1000.6 hPa North 16.3 km/h 29.6 km/h 58 % 0.51 mm
06:01 19.4 °C 10.7 °C 1000.6 hPa NW 25.1 km/h 35.2 km/h 57 % 0.51 mm
06:06 19.2 °C 11 °C 1000.9 hPa NW 15.8 km/h 22.5 km/h 59 % 0.51 mm
06:11 19 °C 11.1 °C 1000.6 hPa North 25.4 km/h 42.6 km/h 60 % 0.51 mm
06:16 18.7 °C 11.3 °C 1000.2 hPa NNW 20 km/h 32.2 km/h 62 % 0.51 mm
06:21 18.4 °C 11.3 °C 1000.6 hPa NW 23.7 km/h 33.3 km/h 63 % 0.51 mm
06:26 18.3 °C 11.6 °C 1001.6 hPa NW 28.3 km/h 42.6 km/h 65 % 0.51 mm
06:31 18.1 °C 11.7 °C 1000.9 hPa North 28.5 km/h 42.6 km/h 66 % 0.51 mm
06:36 17.8 °C 12 °C 1001.2 hPa North 20.9 km/h 31.5 km/h 69 % 0.51 mm
06:41 17.4 °C 12.1 °C 1001.6 hPa North 19 km/h 25.9 km/h 71 % 0 mm
06:46 17.3 °C 12.2 °C 1001.6 hPa North 17.7 km/h 29.6 km/h 72 % 0 mm
06:51 17.2 °C 12.3 °C 1001.2 hPa WNW 21.4 km/h 31.5 km/h 73 % 0 mm
06:56 17 °C 12.6 °C 1000.9 hPa North 14.8 km/h 24.1 km/h 75 % 0 mm
07:01 16.9 °C 12.6 °C 1000.6 hPa NW 14.3 km/h 25.7 km/h 76 % 0 mm
07:06 17 °C 12.7 °C 1000.9 hPa NW 14.6 km/h 22.2 km/h 76 % 0 mm
07:11 17.2 °C 12.7 °C 1001.2 hPa NNW 17.9 km/h 25.9 km/h 75 % 0 mm
07:16 17.2 °C 12.7 °C 1001.2 hPa North 19.3 km/h 33.3 km/h 75 % 0 mm
07:21 17.3 °C 12.8 °C 1001.2 hPa North 17.5 km/h 24.1 km/h 75 % 0 mm
07:26 17.3 °C 12.8 °C 1000.9 hPa NW 18 km/h 27.8 km/h 75 % 0 mm
07:31 17.2 °C 12.9 °C 1001.6 hPa NW 15.6 km/h 27.8 km/h 76 % 0 mm
07:36 17.2 °C 13.2 °C 1001.6 hPa WNW 15.9 km/h 20.4 km/h 77 % 0 mm
07:41 17.1 °C 13.2 °C 1001.6 hPa WNW 12.1 km/h 18.5 km/h 78 % 0 mm
07:46 16.9 °C 13.2 °C 1001.6 hPa NW 14.3 km/h 20.9 km/h 79 % 0.25 mm
07:51 16.8 °C 13.3 °C 1001.6 hPa NW 13.7 km/h 18.5 km/h 80 % 0.25 mm
07:56 16.8 °C 13.3 °C 1001.9 hPa North 15.6 km/h 22.2 km/h 80 % 0.25 mm
08:01 16.8 °C 13.3 °C 1001.9 hPa West 19 km/h 27.8 km/h 80 % 0.25 mm
08:06 16.8 °C 13.3 °C 1002.3 hPa WNW 25.7 km/h 33.3 km/h 80 % 0.25 mm
08:11 16.8 °C 13 °C 1002.3 hPa West 26.2 km/h 31.5 km/h 78 % 0.25 mm
08:16 16.8 °C 12.5 °C 1002.6 hPa WNW 30.4 km/h 42.6 km/h 76 % 0.25 mm
08:21 16.8 °C 12.3 °C 1002.9 hPa NW 22.2 km/h 31.5 km/h 75 % 0.25 mm
08:26 16.8 °C 12.3 °C 1003.3 hPa WNW 22.2 km/h 33.8 km/h 75 % 0.25 mm
08:31 15.7 °C 11.3 °C 1003.6 hPa West 27.2 km/h 37 km/h 75 % 0.25 mm
08:36 14.8 °C 11.4 °C 1003.3 hPa WSW 18.2 km/h 29.6 km/h 80 % 0.25 mm
08:41 14.6 °C 10.9 °C 1003.9 hPa WSW 14.6 km/h 20.9 km/h 79 % 0.25 mm
08:46 14.5 °C 11.1 °C 1003.9 hPa WNW 10.5 km/h 20.4 km/h 80 % 0 mm
08:51 14.7 °C 10.9 °C 1004.3 hPa North 19.8 km/h 25.9 km/h 78 % 0 mm
08:56 14.9 °C 10.7 °C 1004.3 hPa NW 24.9 km/h 31.5 km/h 76 % 0 mm
09:01 14.9 °C 10.3 °C 1004.3 hPa WNW 23.2 km/h 27.4 km/h 74 % 0 mm
09:06 14.9 °C 9.7 °C 1004.6 hPa West 22.7 km/h 31.5 km/h 71 % 0 mm
09:11 15.1 °C 9.4 °C 1004.6 hPa North 29.1 km/h 46.3 km/h 69 % 0 mm
09:16 15.3 °C 9.4 °C 1004.6 hPa West 19.3 km/h 27.8 km/h 68 % 0 mm
09:19 15.3 °C 8.7 °C 1005 hPa West 32.5 km/h 44.4 km/h 65 % 0 mm
09:24 15.2 °C 8.6 °C 1005 hPa West 26.4 km/h 29 km/h 65 % 0 mm
09:29 15.3 °C 8.3 °C 1005 hPa North 26.1 km/h 40.7 km/h 63 % 0 mm
09:34 15.4 °C 8.4 °C 1005.3 hPa West 23.2 km/h 38.9 km/h 63 % 0 mm
09:39 15.7 °C 8.2 °C 1005.3 hPa West 27 km/h 48.1 km/h 61 % 0 mm
09:44 15.8 °C 7.8 °C 1005.3 hPa West 20.6 km/h 31.5 km/h 59 % 0 mm
09:49 15.9 °C 7.4 °C 1005.3 hPa WNW 29.9 km/h 35.2 km/h 57 % 0 mm
09:54 16 °C 7.5 °C 1005.3 hPa WSW 25.7 km/h 41.8 km/h 57 % 0 mm
10:00 16.1 °C 7.3 °C 1005.6 hPa West 26.7 km/h 35.2 km/h 56 % 0 mm
10:04 16.1 °C 7.3 °C 1005.6 hPa West 25.9 km/h 32.2 km/h 56 % 0 mm
10:09 15.9 °C 6.9 °C 1006 hPa West 32.5 km/h 43.5 km/h 55 % 0 mm
10:14 16 °C 6.7 °C 1006.3 hPa North 34.3 km/h 48.1 km/h 54 % 0 mm
10:19 16.1 °C 7.3 °C 1006.3 hPa WNW 19.8 km/h 29.6 km/h 56 % 0 mm
10:24 16.3 °C 7 °C 1006.7 hPa West 18.7 km/h 27.8 km/h 54 % 0 mm
10:29 16.1 °C 6.5 °C 1006.7 hPa WNW 23.5 km/h 37 km/h 53 % 0 mm
10:34 16.1 °C 6.2 °C 1006.7 hPa WNW 31.7 km/h 40.2 km/h 52 % 0 mm
10:39 16.2 °C 6.3 °C 1007 hPa WNW 21.9 km/h 29.6 km/h 52 % 0 mm
10:44 16.5 °C 6.1 °C 1007 hPa West 30.6 km/h 37 km/h 50 % 0 mm
10:49 16.6 °C 6.1 °C 1007 hPa West 32.5 km/h 40.7 km/h 50 % 0 mm
10:55 16.3 °C 6.1 °C 1007.3 hPa North 24.6 km/h 33.3 km/h 51 % 0 mm
11:00 16.3 °C 6.1 °C 1007.3 hPa NW 22.2 km/h 42.6 km/h 51 % 0 mm
11:05 16.6 °C 5.2 °C 1007.7 hPa WNW 33.8 km/h 38.9 km/h 47 % 0 mm
11:10 16.7 °C 5.1 °C 1007.3 hPa North 27 km/h 38.9 km/h 46 % 0 mm
11:15 16.6 °C 5.2 °C 1007.7 hPa North 27.7 km/h 31.5 km/h 47 % 0 mm
11:20 16.1 °C 5.4 °C 1008 hPa North 31.7 km/h 37 km/h 49 % 0 mm
11:25 15.9 °C 5.8 °C 1008 hPa NW 28.2 km/h 44.4 km/h 51 % 0 mm
11:30 16 °C 5.8 °C 1008 hPa NW 31.5 km/h 31.5 km/h 51 % 0 mm
11:35 16.3 °C 6.2 °C 1008 hPa WNW 18.5 km/h 37 km/h 51 % 0 mm
11:40 16.8 °C 5.4 °C 1008 hPa NW 36.5 km/h 44.4 km/h 47 % 0 mm
11:45 16.8 °C 4.4 °C 1007.7 hPa WNW 27.7 km/h 38.9 km/h 44 % 0 mm
11:50 17.2 °C 4.4 °C 1008 hPa West 34.1 km/h 40.7 km/h 43 % 0 mm
11:55 17.1 °C 4.1 °C 1008 hPa WNW 25.3 km/h 31.5 km/h 42 % 0 mm
12:00 17.4 °C 3.7 °C 1008.4 hPa WSW 21.4 km/h 33.8 km/h 40 % 0 mm
12:05 17.4 °C 2.9 °C 1008.7 hPa West 31.4 km/h 46.7 km/h 38 % 0 mm
12:10 17.4 °C 3.3 °C 1008.7 hPa WNW 18.8 km/h 38.9 km/h 39 % 0 mm
12:15 17.6 °C 2.7 °C 1008.7 hPa North 30.1 km/h 40.7 km/h 37 % 0 mm
12:20 17.3 °C 3.2 °C 1008.7 hPa North 31.5 km/h 40.7 km/h 39 % 0 mm
12:25 17.1 °C 3.3 °C 1009 hPa West 36 km/h 48.1 km/h 40 % 0 mm
12:30 17.5 °C 3.4 °C 1009 hPa West 29.1 km/h 37 km/h 39 % 0 mm
12:35 17.5 °C 3 °C 1008.7 hPa West 32.5 km/h 42.6 km/h 38 % 0 mm
12:40 17.7 °C 3.2 °C 1008.7 hPa North 28.5 km/h 42.6 km/h 38 % 0 mm
12:45 18 °C 4.2 °C 1009 hPa West 27.2 km/h 37 km/h 40 % 0 mm
12:50 18 °C 3.8 °C 1009 hPa North 23 km/h 31.5 km/h 39 % 0 mm
12:55 17.8 °C 4 °C 1009 hPa WNW 19.2 km/h 27.8 km/h 40 % 0 mm
13:00 18 °C 3.8 °C 1009.4 hPa WNW 29 km/h 42.6 km/h 39 % 0 mm
13:05 17.5 °C 3.7 °C 1009.4 hPa North 20.6 km/h 29.6 km/h 40 % 0 mm
13:10 17.9 °C 4.1 °C 1009.4 hPa West 26.9 km/h 35.2 km/h 40 % 0 mm
13:15 18.2 °C 3.7 °C 1009.4 hPa WNW 23.3 km/h 33.3 km/h 38 % 0 mm
13:20 17.6 °C 3.5 °C 1009.4 hPa West 29.1 km/h 37 km/h 39 % 0 mm
13:25 17.9 °C 3.8 °C 1009.7 hPa West 23.3 km/h 35.2 km/h 39 % 0 mm
13:30 17.6 °C 4.9 °C 1009.4 hPa WSW 24 km/h 31.5 km/h 43 % 0 mm
13:35 17.8 °C 5 °C 1009.4 hPa WSW 21.7 km/h 29.6 km/h 43 % 0 mm
13:40 18 °C 4.6 °C 1009.7 hPa West 20.8 km/h 29.6 km/h 41 % 0 mm
13:45 18.3 °C 4.1 °C 1009.7 hPa WSW 17.7 km/h 27.8 km/h 39 % 0 mm
13:50 18.4 °C 3.5 °C 1009.7 hPa WSW 27.4 km/h 38.9 km/h 37 % 0 mm
13:55 18.5 °C 3.5 °C 1009.7 hPa North 19.3 km/h 27.4 km/h 37 % 0 mm
14:00 18.5 °C 3.5 °C 1009.7 hPa North 20 km/h 25.9 km/h 37 % 0 mm
14:05 18.7 °C 2.9 °C 1009.7 hPa North 17.5 km/h 24.1 km/h 35 % 0 mm
14:10 18.3 °C 3.3 °C 1010 hPa WNW 16.3 km/h 20.4 km/h 37 % 0 mm
14:15 18.3 °C 3 °C 1009.7 hPa WNW 25.6 km/h 38.6 km/h 36 % 0 mm
14:20 18.5 °C 3.1 °C 1009.7 hPa SW 12.4 km/h 18.5 km/h 36 % 0 mm
14:25 19 °C 1.9 °C 1009.7 hPa WSW 28 km/h 40.7 km/h 32 % 0 mm
14:30 18.9 °C 2.3 °C 1010 hPa West 19.6 km/h 24.1 km/h 33 % 0 mm
14:35 18.6 °C 1.1 °C 1010 hPa West 29.9 km/h 38.9 km/h 31 % 0 mm
14:40 18.3 °C 1.3 °C 1010 hPa WSW 21.4 km/h 31.5 km/h 32 % 0 mm
14:45 18.9 °C 2.3 °C 1010 hPa WNW 17.4 km/h 24.1 km/h 33 % 0 mm
14:50 19.2 °C 2.1 °C 1010 hPa West 23.3 km/h 31.5 km/h 32 % 0 mm
14:55 19.3 °C 2.2 °C 1010 hPa WNW 21.4 km/h 27.8 km/h 32 % 0 mm
15:00 19 °C 1.9 °C 1010 hPa WNW 23.5 km/h 31.5 km/h 32 % 0 mm
15:05 19.2 °C 1.7 °C 1010 hPa WNW 24.8 km/h 31.5 km/h 31 % 0 mm
15:10 19.3 °C 1.7 °C 1010 hPa North 14.6 km/h 25.7 km/h 31 % 0 mm
15:15 19.3 °C 1.7 °C 1010 hPa West 28.3 km/h 35.2 km/h 31 % 0 mm
15:20 18.4 °C 1.8 °C 1010 hPa West 19.3 km/h 27.8 km/h 33 % 0 mm
15:25 18.6 °C 1.6 °C 1010 hPa WSW 24.5 km/h 33.3 km/h 32 % 0 mm
15:30 18.8 °C 1.7 °C 1010 hPa West 12.6 km/h 20.4 km/h 32 % 0 mm
15:35 19.1 °C 2 °C 1010 hPa West 9.5 km/h 13 km/h 32 % 0 mm
15:40 19.3 °C 2.2 °C 1009.7 hPa West 15.3 km/h 18.5 km/h 32 % 0 mm
15:45 19.7 °C 1.6 °C 1009.7 hPa WNW 23 km/h 31.5 km/h 30 % 0 mm
15:50 18.9 °C 1.4 °C 1009.7 hPa WNW 17.4 km/h 24.1 km/h 31 % 0 mm
15:55 18.7 °C 2.1 °C 1009.7 hPa West 19.3 km/h 29.6 km/h 33 % 0 mm
16:00 19.4 °C 2.3 °C 1009.7 hPa West 14.6 km/h 24.1 km/h 32 % 0 mm
16:05 19.3 °C 2.2 °C 1010 hPa North 22 km/h 27.8 km/h 32 % 0 mm
16:10 19.1 °C 2.4 °C 1009.7 hPa WNW 10.9 km/h 13 km/h 33 % 0 mm
16:15 19 °C 1.9 °C 1010 hPa West 16.4 km/h 27.8 km/h 32 % 0 mm
16:20 19.1 °C 2.4 °C 1009.7 hPa WNW 18.3 km/h 24.1 km/h 33 % 0 mm
16:25 19.5 °C 2.3 °C 1009.7 hPa West 24.1 km/h 29.6 km/h 32 % 0 mm
16:30 19.4 °C 2.3 °C 1010 hPa North 14.5 km/h 20.4 km/h 32 % 0 mm
16:35 19.4 °C 2.3 °C 1009.7 hPa West 15.8 km/h 25.7 km/h 32 % 0 mm
16:40 19.6 °C 2.4 °C 1010 hPa WNW 13 km/h 18.5 km/h 32 % 0 mm
16:45 19.4 °C 2.3 °C 1010 hPa West 21.6 km/h 29.6 km/h 32 % 0 mm
16:50 19.2 °C 2.6 °C 1010 hPa WNW 9.7 km/h 19.3 km/h 33 % 0 mm
16:55 19.2 °C 2.6 °C 1010 hPa NW 13.2 km/h 18.5 km/h 33 % 0 mm
17:00 19.3 °C 2.7 °C 1010 hPa North 16.7 km/h 27.8 km/h 33 % 0 mm
17:05 19.1 °C 2.4 °C 1010.4 hPa West 15.6 km/h 20.9 km/h 33 % 0 mm
17:10 18.7 °C 2.5 °C 1010 hPa NW 10.8 km/h 14.8 km/h 34 % 0 mm
17:15 19 °C 3.2 °C 1010 hPa North 10.3 km/h 14.8 km/h 35 % 0 mm
17:20 19.3 °C 2.6 °C 1010 hPa West 25.3 km/h 31.5 km/h 33 % 0 mm
17:25 19.1 °C 2.4 °C 1010.4 hPa NW 12.1 km/h 18.5 km/h 33 % 0 mm
17:30 19.2 °C 2.9 °C 1010.4 hPa North 22.7 km/h 25.9 km/h 34 % 0 mm
17:35 19 °C 2.8 °C 1010.4 hPa West 15.6 km/h 22.2 km/h 34 % 0 mm
17:40 18.4 °C 2.7 °C 1010.7 hPa WNW 13.2 km/h 17.7 km/h 35 % 0 mm
17:45 18.9 °C 3.1 °C 1010.7 hPa WNW 8.4 km/h 9.3 km/h 35 % 0 mm
17:50 19.2 °C 2.9 °C 1010.7 hPa NW 12.7 km/h 20.4 km/h 34 % 0 mm
17:55 18.9 °C 2.7 °C 1010.7 hPa WNW 16.3 km/h 24.1 km/h 34 % 0 mm
18:00 18.3 °C 2.9 °C 1011.1 hPa WNW 16.6 km/h 20.4 km/h 36 % 0 mm
18:05 18.6 °C 3.2 °C 1011.1 hPa North 11.6 km/h 14.8 km/h 36 % 0 mm
18:10 18.9 °C 3.1 °C 1011.1 hPa WNW 11.6 km/h 18.5 km/h 35 % 0 mm
18:15 18.9 °C 2.7 °C 1011.1 hPa WNW 20.1 km/h 24.1 km/h 34 % 0 mm
18:20 18.6 °C 2.8 °C 1011.4 hPa North 12.2 km/h 18.5 km/h 35 % 0 mm
18:25 18.2 °C 2.8 °C 1011.4 hPa West 10.9 km/h 17.7 km/h 36 % 0 mm
18:30 18.3 °C 2.6 °C 1011.4 hPa WNW 15.6 km/h 25.9 km/h 35 % 0 mm
18:35 18.3 °C 2.6 °C 1011.7 hPa West 19.5 km/h 24.1 km/h 35 % 0 mm
18:40 18.3 °C 2.6 °C 1011.7 hPa WNW 17.1 km/h 18.5 km/h 35 % 0 mm
18:45 18.3 °C 2.6 °C 1011.7 hPa NNW 13.2 km/h 20.4 km/h 35 % 0 mm
18:50 18.2 °C 2.4 °C 1011.7 hPa North 15.3 km/h 25.9 km/h 35 % 0 mm
18:55 18.1 °C 2.4 °C 1012.1 hPa North 13 km/h 22.5 km/h 35 % 0 mm
19:00 17.9 °C 2.2 °C 1012.1 hPa West 16.7 km/h 22.5 km/h 35 % 0 mm
19:05 17.8 °C 2.5 °C 1012.1 hPa NW 19.6 km/h 25.9 km/h 36 % 0 mm
19:10 17.6 °C 2.3 °C 1012.1 hPa WNW 18.3 km/h 25.9 km/h 36 % 0 mm
19:15 17.3 °C 2.4 °C 1012.1 hPa WNW 12.9 km/h 18.5 km/h 37 % 0 mm
19:20 17.1 °C 2.3 °C 1012.4 hPa North 12.1 km/h 18.5 km/h 37 % 0 mm
19:25 17 °C 2.6 °C 1012.4 hPa WNW 14 km/h 24.1 km/h 38 % 0 mm
19:30 16.9 °C 2.4 °C 1012.4 hPa WNW 16.1 km/h 18.5 km/h 38 % 0 mm
19:35 16.7 °C 2.7 °C 1012.8 hPa North 9.7 km/h 18.5 km/h 39 % 0 mm
19:40 16.6 °C 2.9 °C 1012.8 hPa NW 10.9 km/h 18.5 km/h 40 % 0 mm
19:45 16.4 °C 2.8 °C 1012.8 hPa WNW 10 km/h 16.7 km/h 40 % 0 mm
19:50 16.4 °C 2.7 °C 1012.8 hPa North 10.1 km/h 13 km/h 40 % 0 mm
19:55 16.2 °C 2.9 °C 1012.8 hPa NW 12.6 km/h 18.5 km/h 41 % 0 mm
20:00 16.2 °C 2.9 °C 1012.8 hPa North 7.9 km/h 12.9 km/h 41 % 0 mm
20:05 16.2 °C 3.2 °C 1013.1 hPa WNW 2.6 km/h 5.6 km/h 42 % 0 mm
20:10 16.1 °C 3.1 °C 1013.1 hPa WNW 7.7 km/h 9.3 km/h 42 % 0 mm
20:15 15.9 °C 3.1 °C 1013.1 hPa WNW 9.2 km/h 14.5 km/h 42 % 0 mm
20:20 15.9 °C 3.1 °C 1013.1 hPa NW 11.1 km/h 18.5 km/h 42 % 0 mm
20:25 15.8 °C 3.3 °C 1013.1 hPa North 7.7 km/h 8 km/h 43 % 0 mm
20:30 15.8 °C 3.6 °C 1013.1 hPa NW 8 km/h 13 km/h 44 % 0 mm
20:35 15.7 °C 3.4 °C 1013.1 hPa NW 10.1 km/h 10.1 km/h 44 % 0 mm
20:40 15.7 °C 3.4 °C 1013.4 hPa NW 3.1 km/h 9.3 km/h 44 % 0 mm
20:45 15.6 °C 3.3 °C 1013.1 hPa NW 4 km/h 5.6 km/h 44 % 0 mm
20:50 15.4 °C 3.5 °C 1013.1 hPa NW 7.6 km/h 7.6 km/h 45 % 0 mm
20:55 15.4 °C 3.5 °C 1013.4 hPa NW 11.7 km/h 13 km/h 45 % 0 mm
21:00 15.6 °C 3.9 °C 1013.1 hPa NW 4.3 km/h 14.8 km/h 46 % 0 mm
21:06 15.7 °C 3.8 °C 1013.4 hPa NNW 7.2 km/h 13 km/h 45 % 0 mm
21:10 15.6 °C 3.7 °C 1013.1 hPa NNW 7.6 km/h 9.7 km/h 45 % 0 mm
21:15 15.6 °C 4 °C 1013.4 hPa NNW 3.9 km/h 5.6 km/h 46 % 0 mm
21:21 15.4 °C 3.9 °C 1013.4 hPa North 2.9 km/h 4.8 km/h 46 % 0 mm
21:26 15.4 °C 4.1 °C 1013.4 hPa North 11.3 km/h 14.8 km/h 47 % 0 mm
21:31 15.3 °C 4.1 °C 1013.4 hPa NW 3.9 km/h 9.3 km/h 47 % 0 mm
21:36 15.3 °C 4.3 °C 1013.4 hPa NW 6.4 km/h 9.7 km/h 48 % 0 mm
21:41 15.2 °C 4.3 °C 1013.4 hPa NNW 4.8 km/h 8 km/h 48 % 0 mm
21:46 15 °C 4.4 °C 1013.4 hPa North 5.3 km/h 11.1 km/h 49 % 0 mm
21:51 15 °C 4.7 °C 1013.4 hPa North 4.7 km/h 7.4 km/h 50 % 0 mm
21:56 14.9 °C 4.6 °C 1013.4 hPa NNW 9.2 km/h 14.8 km/h 50 % 0 mm
22:01 15 °C 4.7 °C 1013.4 hPa North 10 km/h 14.8 km/h 50 % 0 mm
22:06 14.9 °C 4.9 °C 1013.4 hPa NW 8.9 km/h 14.8 km/h 51 % 0 mm
22:11 14.7 °C 4.7 °C 1013.4 hPa North 9.8 km/h 13 km/h 51 % 0 mm
22:16 14.4 °C 4.7 °C 1013.4 hPa NW 12.6 km/h 14.8 km/h 52 % 0 mm
22:21 14.4 °C 4.9 °C 1013.4 hPa WNW 17.4 km/h 20.9 km/h 53 % 0 mm
22:26 14.4 °C 4.9 °C 1013.4 hPa North 16.9 km/h 20.4 km/h 53 % 0 mm
22:31 14.4 °C 4.9 °C 1013.4 hPa WNW 15.9 km/h 20.4 km/h 53 % 0 mm
22:36 14.3 °C 4.9 °C 1013.4 hPa WNW 13.7 km/h 18.5 km/h 53 % 0 mm
22:41 14.3 °C 4.8 °C 1013.4 hPa NW 11.6 km/h 14.8 km/h 53 % 0 mm
22:46 14.2 °C 4.7 °C 1013.4 hPa NW 2.6 km/h 5.6 km/h 53 % 0 mm
22:51 14 °C 4.8 °C 1013.4 hPa NNW 3.7 km/h 5.6 km/h 54 % 0 mm
22:56 13.7 °C 4.5 °C 1013.8 hPa ENE 3.2 km/h 8 km/h 54 % 0 mm
23:01 13.3 °C 4.5 °C 1013.8 hPa ENE 4.7 km/h 9.3 km/h 55 % 0 mm
23:06 13.2 °C 4.6 °C 1013.8 hPa ENE 6.3 km/h 9.3 km/h 56 % 0 mm
23:11 13.2 °C 4.6 °C 1013.8 hPa ENE 2.7 km/h 5.6 km/h 56 % 0 mm
23:16 13.2 °C 4.6 °C 1013.8 hPa ENE 4.7 km/h 6.4 km/h 56 % 0 mm
23:21 13.3 °C 4.5 °C 1013.4 hPa NNE 11.6 km/h 13 km/h 55 % 0 mm
23:26 13.4 °C 4.3 °C 1013.4 hPa NNE 7.2 km/h 14.8 km/h 54 % 0 mm
23:31 13.6 °C 4.4 °C 1013.4 hPa NNE 9.8 km/h 14.8 km/h 54 % 0 mm
23:36 13.7 °C 4.5 °C 1013.4 hPa NNE 8.7 km/h 13 km/h 54 % 0 mm
23:41 13.7 °C 4.5 °C 1013.4 hPa NNE 7.6 km/h 13 km/h 54 % 0 mm
23:46 13.5 °C 4.4 °C 1013.4 hPa NNE 4.5 km/h 8 km/h 54 % 0 mm
23:51 13.4 °C 4.6 °C 1013.4 hPa NNE 6.1 km/h 11.1 km/h 55 % 0 mm
23:56 13.4 °C 4.5 °C 1013.1 hPa NNE 3.2 km/h 11.1 km/h 55 % 0 mm
Ararat Weather
Compliments of Weather Underground - 2.5 mb
Click here to send mail.


ABOUT

Live weather data from Ararat, Victoria, Australia, 3377
Data uploaded from Cumulus every 5 minutes to Weather Underground.
This site then downloads the raw data for formatting and display.
Metric and imperial data can be displayed. Graphs and historical data available.
Includes Sun and Moon times and rain image live from BOM.

Check out Ararat Weather on Facebook, Twitter and Google +

Help support ongoing costs by checking out the ads





Follow @AraratWeather